Time;durP1;ratioP1;P1;durP2;ratioP2;P2;SDS_P1;SDS_P2;PMS_P1;PMS_P2;Temp;Humidity;BMP_temperature;BMP_pressure;BME280_temperature;BME280_humidity;BME280_pressure;Samples;Min_cycle;Max_cycle;Signal;HPM_P1;HPM_P2
2021/07/23 00:01:23;0.00;0.00;0.62;0.00;0.00;0.62;;;;;23.30;69.80;;;;;;2259161;61;6051;-88
2021/07/23 00:03:49;0.00;0.00;0.62;0.00;0.00;0.62;;;;;23.30;69.80;;;;;;2259513;61;3404;-89
2021/07/23 00:06:15;0.00;0.00;0.62;0.00;0.00;0.62;;;;;23.30;69.80;;;;;;2258531;61;3835;-88
2021/07/23 00:08:40;304617.00;1.02;525.86;182938.00;0.61;316.55;;;;;23.30;69.80;;;;;;2258816;61;2700;-88
2021/07/23 00:11:06;95630.00;0.32;166.03;0.00;0.00;0.62;;;;;23.30;69.90;;;;;;2261580;61;2810;-88
2021/07/23 00:13:31;0.00;0.00;0.62;0.00;0.00;0.62;;;;;23.30;69.90;;;;;;2259378;61;2306;-87
2021/07/23 00:15:57;170791.00;0.57;295.63;0.00;0.00;0.62;;;;;23.30;69.90;;;;;;2259129;61;4321;-88
2021/07/23 00:18:23;0.00;0.00;0.62;0.00;0.00;0.62;;;;;23.30;69.90;;;;;;2258945;61;3712;-88
2021/07/23 00:20:48;0.00;0.00;0.62;0.00;0.00;0.62;;;;;23.30;69.90;;;;;;2259511;61;2740;-88
2021/07/23 00:23:17;0.00;0.00;0.62;0.00;0.00;0.62;;;;;23.30;69.90;;;;;;2262616;61;2794;-88
2021/07/23 00:25:42;0.00;0.00;0.62;0.00;0.00;0.62;;;;;23.20;69.90;;;;;;2260834;61;2492;-88
2021/07/23 00:28:08;101960.00;0.34;176.95;0.00;0.00;0.62;;;;;23.20;69.90;;;;;;2260627;61;4236;-88
2021/07/23 00:30:33;90528.00;0.30;157.22;0.00;0.00;0.62;;;;;23.20;69.90;;;;;;2258993;61;2348;-88
2021/07/23 00:33:03;24029.00;0.08;42.25;0.00;0.00;0.62;;;;;23.20;70.00;;;;;;2259537;61;6285;-88
2021/07/23 00:35:28;0.00;0.00;0.62;0.00;0.00;0.62;;;;;23.20;70.00;;;;;;2260423;61;2644;-88
2021/07/23 00:37:56;0.00;0.00;0.62;0.00;0.00;0.62;;;;;23.20;70.00;;;;;;2260044;61;2028;-88
2021/07/23 00:40:23;0.00;0.00;0.62;0.00;0.00;0.62;;;;;23.20;70.00;;;;;;2262621;61;4121;-88
2021/07/23 00:42:51;0.00;0.00;0.62;0.00;0.00;0.62;;;;;23.20;70.20;;;;;;2259776;61;1780;-88
2021/07/23 00:45:18;93246.00;0.31;161.91;0.00;0.00;0.62;;;;;23.20;70.20;;;;;;2258681;61;1971;-88
2021/07/23 00:47:44;0.00;0.00;0.62;0.00;0.00;0.62;;;;;23.20;70.30;;;;;;2255639;61;2592;-88
2021/07/23 00:50:10;0.00;0.00;0.62;0.00;0.00;0.62;;;;;23.20;70.30;;;;;;2259031;61;2731;-88
2021/07/23 00:52:36;0.00;0.00;0.62;0.00;0.00;0.62;;;;;23.20;70.20;;;;;;2259352;61;2356;-88
2021/07/23 00:55:01;129389.00;0.43;224.28;0.00;0.00;0.62;;;;;23.10;70.20;;;;;;2259637;61;2437;-88
2021/07/23 00:57:27;26882.00;0.09;47.19;0.00;0.00;0.62;;;;;23.10;70.20;;;;;;2257669;61;3924;-88
2021/07/23 00:59:53;63061.00;0.21;109.77;0.00;0.00;0.62;;;;;23.20;70.20;;;;;;2259248;61;2029;-88
2021/07/23 01:02:18;16655.00;0.06;29.48;0.00;0.00;0.62;;;;;23.20;70.20;;;;;;2259604;61;4010;-88
2021/07/23 01:04:48;57768.00;0.19;100.62;0.00;0.00;0.62;;;;;23.10;70.30;;;;;;2254892;61;7516;-88
2021/07/23 01:07:13;0.00;0.00;0.62;0.00;0.00;0.62;;;;;23.10;70.30;;;;;;2256755;61;4029;-88
2021/07/23 01:09:39;305908.00;1.02;528.08;63914.00;0.21;111.24;;;;;23.10;70.20;;;;;;2257954;61;6838;-88
2021/07/23 01:12:05;0.00;0.00;0.62;0.00;0.00;0.62;;;;;23.10;70.20;;;;;;2259502;61;2497;-88
2021/07/23 01:14:32;0.00;0.00;0.62;0.00;0.00;0.62;;;;;23.10;70.30;;;;;;2255785;61;3893;-89
2021/07/23 01:16:58;0.00;0.00;0.62;0.00;0.00;0.62;;;;;23.10;70.20;;;;;;2259019;61;1973;-88
2021/07/23 01:19:24;0.00;0.00;0.62;0.00;0.00;0.62;;;;;23.10;70.40;;;;;;2255148;61;4070;-88
2021/07/23 01:21:50;0.00;0.00;0.62;0.00;0.00;0.62;;;;;23.10;70.30;;;;;;2257871;61;3671;-88
2021/07/23 01:24:16;0.00;0.00;0.62;0.00;0.00;0.62;;;;;23.10;70.40;;;;;;2249023;61;3211;-88
2021/07/23 01:26:42;0.00;0.00;0.62;0.00;0.00;0.62;;;;;23.10;70.30;;;;;;2260691;61;5484;-88
2021/07/23 01:29:07;458348.00;1.53;790.14;129352.00;0.43;224.21;;;;;23.10;70.40;;;;;;2259569;61;2753;-89
2021/07/23 01:31:35;0.00;0.00;0.62;0.00;0.00;0.62;;;;;23.10;70.30;;;;;;2260166;61;4341;-88
2021/07/23 01:34:00;0.00;0.00;0.62;0.00;0.00;0.62;;;;;23.10;70.30;;;;;;2259062;61;1917;-88
2021/07/23 01:36:26;0.00;0.00;0.62;0.00;0.00;0.62;;;;;23.10;70.30;;;;;;2258578;61;2724;-88
2021/07/23 01:38:52;394898.00;1.32;681.03;0.00;0.00;0.62;;;;;23.00;70.40;;;;;;2259893;61;2136;-88
2021/07/23 01:41:18;222210.00;0.74;384.15;25119.00;0.08;44.13;;;;;23.00;70.30;;;;;;2255467;61;2548;-88
2021/07/23 01:47:05;63671.00;0.21;110.82;0.00;0.00;0.62;;;;;23.00;70.30;;;;;;2272070;58;3054;-88
2021/07/23 01:49:31;0.00;0.00;0.62;0.00;0.00;0.62;;;;;23.00;70.20;;;;;;2259982;61;4196;-88
2021/07/23 01:51:57;275482.00;0.92;475.77;202071.00;0.67;349.49;;;;;23.00;70.20;;;;;;2259692;61;3215;-88
2021/07/23 01:54:22;0.00;0.00;0.62;0.00;0.00;0.62;;;;;23.00;70.20;;;;;;2259108;61;2778;-87
2021/07/23 01:56:48;55632.00;0.19;96.93;0.00;0.00;0.62;;;;;23.00;70.20;;;;;;2259907;61;4412;-88
2021/07/23 01:59:14;115668784.00;385.56;62684480.00;0.00;0.00;0.62;;;;;23.00;70.30;;;;;;2259632;61;3684;-88
2021/07/23 02:01:39;98098.00;0.33;170.29;0.00;0.00;0.62;;;;;23.00;70.30;;;;;;2259270;61;1841;-88
2021/07/23 02:04:05;0.00;0.00;0.62;0.00;0.00;0.62;;;;;23.00;70.30;;;;;;2260459;61;3420;-88
2021/07/23 02:06:31;25420.00;0.08;44.65;0.00;0.00;0.62;;;;;23.00;70.20;;;;;;2258193;61;10812;-88
2021/07/23 02:08:56;193227.00;0.64;334.26;0.00;0.00;0.62;;;;;23.00;70.30;;;;;;2259990;61;4024;-89
2021/07/23 02:11:22;178396.00;0.59;308.73;0.00;0.00;0.62;;;;;23.00;70.30;;;;;;2259733;61;9625;-88
2021/07/23 02:13:47;64600.00;0.22;112.43;0.00;0.00;0.62;;;;;23.00;70.30;;;;;;2259398;61;9452;-88
2021/07/23 02:16:13;30572.00;0.10;53.57;0.00;0.00;0.62;;;;;22.90;70.30;;;;;;2259056;61;1672;-88
2021/07/23 02:18:40;19962.00;0.07;35.20;0.00;0.00;0.62;;;;;22.90;70.30;;;;;;2259939;61;3389;-88
2021/07/23 02:21:07;0.00;0.00;0.62;0.00;0.00;0.62;;;;;22.90;70.30;;;;;;2261212;61;2705;-88
2021/07/23 02:23:32;0.00;0.00;0.62;0.00;0.00;0.62;;;;;22.90;70.20;;;;;;2258343;61;4099;-89
2021/07/23 02:25:58;90248.00;0.30;156.74;0.00;0.00;0.62;;;;;22.90;70.20;;;;;;2259225;61;1872;-88
2021/07/23 02:28:24;199085.00;0.66;344.35;120555.00;0.40;209.04;;;;;22.90;70.20;;;;;;2260480;61;1784;-89
2021/07/23 02:30:49;41571.00;0.14;72.61;0.00;0.00;0.62;;;;;22.90;70.30;;;;;;2258669;61;3811;-88
2021/07/23 02:33:15;0.00;0.00;0.62;0.00;0.00;0.62;;;;;22.90;70.20;;;;;;2260306;61;1817;-88
2021/07/23 02:35:40;9312.00;0.03;16.76;0.00;0.00;0.62;;;;;22.90;70.20;;;;;;2258204;61;2751;-88
2021/07/23 02:38:06;0.00;0.00;0.62;0.00;0.00;0.62;;;;;22.90;70.20;;;;;;2259477;61;2722;-88
2021/07/23 02:40:32;107325.00;0.36;186.21;0.00;0.00;0.62;;;;;22.90;70.20;;;;;;2259463;61;5977;-89
2021/07/23 02:42:57;8568.00;0.03;15.47;0.00;0.00;0.62;;;;;22.90;70.00;;;;;;2260207;61;2102;-88
2021/07/23 02:45:23;0.00;0.00;0.62;0.00;0.00;0.62;;;;;22.90;70.20;;;;;;2255309;61;3396;-88
2021/07/23 02:47:49;164867.00;0.55;285.42;0.00;0.00;0.62;;;;;22.90;70.20;;;;;;2258233;61;5897;-89
2021/07/23 02:50:14;48044.00;0.16;83.80;0.00;0.00;0.62;;;;;22.90;70.20;;;;;;2257462;61;6270;-88
2021/07/23 02:52:40;83714.00;0.28;145.45;0.00;0.00;0.62;;;;;22.90;70.20;;;;;;2257114;61;4953;-88
2021/07/23 02:55:06;278215.00;0.93;480.47;63881.00;0.21;111.19;;;;;22.90;70.20;;;;;;2258008;61;5954;-88
2021/07/23 02:57:31;0.00;0.00;0.62;0.00;0.00;0.62;;;;;22.80;70.30;;;;;;2258811;61;4969;-88
2021/07/23 02:59:57;60762.00;0.20;105.79;0.00;0.00;0.62;;;;;22.80;70.20;;;;;;2258464;61;6057;-88
2021/07/23 03:02:22;40270.00;0.13;70.36;0.00;0.00;0.62;;;;;22.80;70.20;;;;;;2258366;61;5503;-88
2021/07/23 03:04:48;64718.00;0.22;112.63;0.00;0.00;0.62;;;;;22.80;70.00;;;;;;2258804;61;5772;-88
2021/07/23 03:07:13;11409.00;0.04;20.39;0.00;0.00;0.62;;;;;22.80;70.00;;;;;;2258363;61;6679;-89
2021/07/23 03:09:39;170150.00;0.57;294.52;0.00;0.00;0.62;;;;;22.80;70.00;;;;;;2258984;61;4649;-88
2021/07/23 03:12:05;0.00;0.00;0.62;0.00;0.00;0.62;;;;;22.80;70.00;;;;;;2259105;61;4971;-88
2021/07/23 03:14:31;687334.00;2.29;1185.28;285887.00;0.95;493.66;;;;;22.80;70.20;;;;;;2258216;61;4889;-88
2021/07/23 03:16:56;0.00;0.00;0.62;0.00;0.00;0.62;;;;;22.80;70.20;;;;;;2257401;61;6604;-88
2021/07/23 03:19:22;355153.00;1.18;612.72;146433.00;0.49;253.66;;;;;22.80;70.20;;;;;;2263992;61;5871;-88
2021/07/23 03:21:47;0.00;0.00;0.62;0.00;0.00;0.62;;;;;22.80;70.20;;;;;;2259943;61;2758;-88
2021/07/23 03:24:13;397290.00;1.32;685.15;0.00;0.00;0.62;;;;;22.80;70.20;;;;;;2258788;61;6089;-89
2021/07/23 03:26:39;0.00;0.00;0.62;0.00;0.00;0.62;;;;;22.80;70.00;;;;;;2260479;61;4731;-87
2021/07/23 03:29:05;0.00;0.00;0.62;0.00;0.00;0.62;;;;;22.70;70.00;;;;;;2257874;61;5893;-89
2021/07/23 03:31:31;129170.00;0.43;223.90;0.00;0.00;0.62;;;;;22.70;70.00;;;;;;2260127;61;3044;-88
2021/07/23 03:33:56;92544.00;0.31;160.70;0.00;0.00;0.62;;;;;22.70;70.00;;;;;;2259005;61;3944;-88
2021/07/23 03:36:22;113144.00;0.38;196.25;0.00;0.00;0.62;;;;;22.70;70.00;;;;;;2258596;61;6227;-88
2021/07/23 03:38:47;250617.00;0.84;433.01;0.00;0.00;0.62;;;;;22.70;70.00;;;;;;2259159;61;5805;-89
2021/07/23 03:41:13;149675.00;0.50;259.25;0.00;0.00;0.62;;;;;22.70;70.00;;;;;;2258995;61;6049;-88
2021/07/23 03:43:39;0.00;0.00;0.62;0.00;0.00;0.62;;;;;22.70;70.00;;;;;;2259803;61;2870;-88
2021/07/23 03:46:04;0.00;0.00;0.62;0.00;0.00;0.62;;;;;22.70;69.80;;;;;;2260129;61;2669;-88
2021/07/23 03:48:30;99471.00;0.33;172.66;0.00;0.00;0.62;;;;;22.40;70.30;;;;;;2259066;61;4205;-88
2021/07/23 03:50:55;367596.00;1.23;634.10;210729.00;0.70;364.39;;;;;22.00;71.60;;;;;;2259504;61;3900;-88
2021/07/23 03:53:21;0.00;0.00;0.62;0.00;0.00;0.62;;;;;21.60;72.90;;;;;;2255831;61;4813;-88
2021/07/23 03:55:47;118531.00;0.40;205.55;0.00;0.00;0.62;;;;;21.50;73.50;;;;;;2260671;61;4999;-87
2021/07/23 03:58:12;291915.00;0.97;504.02;128384.00;0.43;222.54;;;;;21.30;73.90;;;;;;2259111;61;6263;-88
2021/07/23 04:00:39;27098.00;0.09;47.56;0.00;0.00;0.62;;;;;21.10;74.80;;;;;;2260464;61;5815;-88
2021/07/23 04:03:05;201155.00;0.67;347.91;0.00;0.00;0.62;;;;;21.00;75.10;;;;;;2253968;61;6008;-87
2021/07/23 04:05:31;192503.00;0.64;333.02;0.00;0.00;0.62;;;;;20.90;75.30;;;;;;2260685;61;4368;-87
2021/07/23 04:07:57;266502.00;0.89;460.33;0.00;0.00;0.62;;;;;20.90;75.60;;;;;;2262449;61;2979;-88
2021/07/23 04:10:24;0.00;0.00;0.62;0.00;0.00;0.62;;;;;20.80;75.60;;;;;;2258692;61;5867;-88
2021/07/23 04:12:50;17740.00;0.06;31.36;0.00;0.00;0.62;;;;;20.80;75.90;;;;;;2260816;61;4833;-88
2021/07/23 04:15:16;0.00;0.00;0.62;0.00;0.00;0.62;;;;;20.70;76.20;;;;;;2258567;61;2759;-88
2021/07/23 04:17:41;175560.00;0.59;303.84;38478.00;0.13;67.26;;;;;20.80;76.10;;;;;;2260011;61;2881;-88
2021/07/23 04:20:07;0.00;0.00;0.62;0.00;0.00;0.62;;;;;20.80;76.10;;;;;;2262536;61;4084;-87
2021/07/23 04:22:34;0.00;0.00;0.62;0.00;0.00;0.62;;;;;20.70;76.50;;;;;;2261875;61;4799;-88
2021/07/23 04:24:59;40047.00;0.13;69.97;0.00;0.00;0.62;;;;;20.70;76.20;;;;;;2262633;61;5406;-88
2021/07/23 04:27:25;79291.00;0.26;137.81;0.00;0.00;0.62;;;;;20.60;76.20;;;;;;2260609;61;3910;-88
2021/07/23 04:29:51;215040.00;0.72;371.81;0.00;0.00;0.62;;;;;20.70;76.10;;;;;;2261113;61;3061;-87
2021/07/23 04:32:16;355042.00;1.18;612.53;180261.00;0.60;311.94;;;;;20.70;76.60;;;;;;2261031;61;1438;-89
2021/07/23 04:34:42;301117.00;1.00;519.84;164215.00;0.55;284.30;;;;;20.70;76.60;;;;;;2259436;61;2067;-89
2021/07/23 04:37:07;154808.00;0.52;268.09;0.00;0.00;0.62;;;;;20.80;76.50;;;;;;2261052;61;1667;-88
2021/07/23 04:39:33;97172.00;0.32;168.69;0.00;0.00;0.62;;;;;20.80;76.60;;;;;;2261191;61;2031;-88
2021/07/23 04:41:59;0.00;0.00;0.62;0.00;0.00;0.62;;;;;20.80;76.20;;;;;;2261897;61;1695;-88
2021/07/23 04:44:24;131371.00;0.44;227.69;46257.00;0.15;80.71;;;;;20.80;76.50;;;;;;2259576;61;2083;-88
2021/07/23 04:46:50;0.00;0.00;0.62;0.00;0.00;0.62;;;;;20.70;76.90;;;;;;2260819;61;2162;-89
2021/07/23 04:49:15;448203.00;1.49;772.69;170099.00;0.57;294.44;;;;;20.70;76.90;;;;;;2262138;61;1631;-89
2021/07/23 04:51:41;0.00;0.00;0.62;0.00;0.00;0.62;;;;;20.80;76.80;;;;;;2260536;61;3647;-89
2021/07/23 04:54:07;236279.00;0.79;408.35;146166.00;0.49;253.20;;;;;20.90;76.40;;;;;;2261467;61;1526;-90
2021/07/23 04:56:33;0.00;0.00;0.62;0.00;0.00;0.62;;;;;20.80;76.80;;;;;;2260593;61;1529;-88
2021/07/23 04:58:58;16217.00;0.05;28.72;0.00;0.00;0.62;;;;;20.80;76.60;;;;;;2261282;61;2689;-88
2021/07/23 05:01:24;146075.00;0.49;253.04;0.00;0.00;0.62;;;;;20.80;76.60;;;;;;2262596;61;1684;-88
2021/07/23 05:03:50;305135.00;1.02;526.75;86822.00;0.29;150.82;;;;;20.90;76.80;;;;;;2261304;61;10417;-88
2021/07/23 05:06:15;166999.00;0.56;289.10;0.00;0.00;0.62;;;;;20.80;76.90;;;;;;2261774;61;1452;-88
2021/07/23 05:08:41;114234.00;0.38;198.14;0.00;0.00;0.62;;;;;20.80;77.10;;;;;;2262202;61;1829;-88
2021/07/23 05:11:09;134367.00;0.45;232.86;0.00;0.00;0.62;;;;;20.80;77.00;;;;;;2260447;61;2708;-87
2021/07/23 05:13:34;3173.00;0.01;6.12;0.00;0.00;0.62;;;;;20.80;77.10;;;;;;2262069;61;1582;-88
2021/07/23 05:16:00;220847.00;0.74;381.80;145125.00;0.48;251.41;;;;;20.80;77.00;;;;;;2261491;61;3695;-89
2021/07/23 05:18:26;25371.00;0.08;44.57;0.00;0.00;0.62;;;;;20.80;77.40;;;;;;2261804;61;1601;-88
2021/07/23 05:20:52;147011.00;0.49;254.66;25704.00;0.09;45.15;;;;;20.70;77.70;;;;;;2263249;61;2224;-89
2021/07/23 05:23:17;0.00;0.00;0.62;0.00;0.00;0.62;;;;;20.70;77.80;;;;;;2263296;61;3104;-88
2021/07/23 05:25:43;242498.00;0.81;419.05;0.00;0.00;0.62;;;;;20.70;77.90;;;;;;2261940;61;2031;-86
2021/07/23 05:28:08;40858.00;0.14;71.37;0.00;0.00;0.62;;;;;20.80;77.80;;;;;;2264926;61;1600;-87
2021/07/23 05:30:34;55357.00;0.18;96.45;0.00;0.00;0.62;;;;;20.80;78.30;;;;;;2264548;61;4162;-86
2021/07/23 05:32:59;185604.00;0.62;321.14;0.00;0.00;0.62;;;;;20.80;77.70;;;;;;2262869;61;3058;-87
2021/07/23 05:35:25;0.00;0.00;0.62;0.00;0.00;0.62;;;;;20.70;77.90;;;;;;2261413;61;1496;-87
2021/07/23 05:37:51;118917.00;0.40;206.21;46036.00;0.15;80.33;;;;;20.80;77.80;;;;;;2263807;61;1912;-87
2021/07/23 05:40:16;345619.00;1.15;596.33;215785.00;0.72;373.09;;;;;20.70;78.00;;;;;;2264995;61;1052;-87
2021/07/23 05:42:43;433152.00;1.44;746.81;230970.00;0.77;399.22;;;;;20.70;78.20;;;;;;2263571;61;1246;-89
2021/07/23 05:45:08;0.00;0.00;0.62;0.00;0.00;0.62;;;;;20.70;78.30;;;;;;2266166;61;2002;-86
2021/07/23 05:47:34;47188.00;0.16;82.32;0.00;0.00;0.62;;;;;20.60;78.20;;;;;;2266847;61;1114;-86
2021/07/23 05:50:00;0.00;0.00;0.62;0.00;0.00;0.62;;;;;20.70;78.60;;;;;;2265512;61;2123;-88
2021/07/23 05:52:26;489737.00;1.63;844.16;0.00;0.00;0.62;;;;;20.70;78.60;;;;;;2264711;61;1386;-88
2021/07/23 05:54:51;170939.00;0.57;295.88;0.00;0.00;0.62;;;;;20.70;78.40;;;;;;2263637;61;2102;-87
2021/07/23 05:57:17;35081.00;0.12;61.38;0.00;0.00;0.62;;;;;20.70;78.40;;;;;;2262096;61;1695;-88
2021/07/23 05:59:45;38810.00;0.13;67.83;0.00;0.00;0.62;;;;;20.70;78.40;;;;;;2264124;61;1443;-89
2021/07/23 06:02:11;55199.00;0.18;96.18;0.00;0.00;0.62;;;;;20.80;78.70;;;;;;2260527;61;1856;-88
2021/07/23 06:04:36;9164.00;0.03;16.50;0.00;0.00;0.62;;;;;20.80;78.70;;;;;;2256414;61;6308;-89
2021/07/23 06:07:06;1623.00;0.01;3.43;0.00;0.00;0.62;;;;;20.90;78.40;;;;;;2258857;61;2640;-88
2021/07/23 06:09:32;266821.00;0.89;460.88;56954.00;0.19;99.21;;;;;21.10;78.40;;;;;;2258396;61;5086;-89
2021/07/23 06:11:57;17698.00;0.06;31.28;0.00;0.00;0.62;;;;;21.30;77.80;;;;;;2256348;61;6101;-91
2021/07/23 06:14:23;30131.00;0.10;52.81;0.00;0.00;0.62;;;;;21.20;77.40;;;;;;2260608;61;2900;-88
2021/07/23 06:16:49;0.00;0.00;0.62;0.00;0.00;0.62;;;;;21.10;77.50;;;;;;2260518;61;3989;-88
2021/07/23 06:19:14;72356.00;0.24;125.83;0.00;0.00;0.62;;;;;21.20;77.50;;;;;;2258179;61;4455;-89
2021/07/23 06:21:40;5547.00;0.02;10.23;0.00;0.00;0.62;;;;;21.10;77.30;;;;;;2259640;61;3444;-91
2021/07/23 06:24:05;202440.00;0.67;350.12;0.00;0.00;0.62;;;;;21.20;77.40;;;;;;2264440;61;2018;-88
2021/07/23 06:26:31;0.00;0.00;0.62;0.00;0.00;0.62;;;;;21.40;77.10;;;;;;2264384;61;1074;-90
2021/07/23 06:28:57;7377.00;0.02;13.40;0.00;0.00;0.62;;;;;21.50;76.80;;;;;;2262919;61;5921;-89
2021/07/23 06:31:23;231735.00;0.77;400.53;0.00;0.00;0.62;;;;;21.70;76.80;;;;;;2264013;61;3074;-88
2021/07/23 06:33:49;235208.00;0.78;406.51;25754.00;0.09;45.23;;;;;21.70;76.50;;;;;;2260478;61;4276;-89
2021/07/23 06:36:15;178852.00;0.60;309.51;35091.00;0.12;61.39;;;;;21.70;76.10;;;;;;2257448;61;5836;-89
2021/07/23 06:38:41;108907.00;0.36;188.94;0.00;0.00;0.62;;;;;21.70;76.20;;;;;;2259565;61;5379;-90
2021/07/23 06:41:06;69540.00;0.23;120.97;0.00;0.00;0.62;;;;;21.70;76.00;;;;;;2260671;61;4066;-91
2021/07/23 06:43:33;310062.00;1.03;535.22;51435.00;0.17;89.67;;;;;21.80;76.00;;;;;;2263042;61;4052;-89
2021/07/23 06:46:00;240772.00;0.80;416.08;0.00;0.00;0.62;;;;;21.80;75.30;;;;;;2259961;61;5784;-87
2021/07/23 06:48:26;33056.00;0.11;57.87;0.00;0.00;0.62;;;;;21.80;75.50;;;;;;2263990;61;1440;-89
2021/07/23 06:50:52;0.00;0.00;0.62;0.00;0.00;0.62;;;;;21.80;75.90;;;;;;2264143;61;1793;-89
2021/07/23 06:53:18;413867.00;1.38;713.65;46374.00;0.15;80.91;;;;;21.80;75.50;;;;;;2264302;61;1629;-88
2021/07/23 06:55:43;242606.00;0.81;419.23;0.00;0.00;0.62;;;;;21.80;75.60;;;;;;2261210;61;2086;-89
2021/07/23 06:58:09;12965.00;0.04;23.09;0.00;0.00;0.62;;;;;21.90;75.30;;;;;;2263158;61;1297;-87
2021/07/23 07:00:35;660355.00;2.20;1138.56;18468.00;0.06;32.62;;;;;21.90;75.30;;;;;;2259440;61;1435;-90
2021/07/23 07:06:28;184769.00;0.62;319.70;0.00;0.00;0.62;;;;;22.10;74.00;;;;;;2263715;61;1069;-90
2021/07/23 07:08:53;185230.00;0.62;320.50;0.00;0.00;0.62;;;;;22.20;73.70;;;;;;2262244;61;2090;-87
2021/07/23 07:11:19;10263.00;0.03;18.40;0.00;0.00;0.62;;;;;22.20;73.40;;;;;;2259120;61;2018;-87
2021/07/23 07:13:44;287809.00;0.96;496.96;81045.00;0.27;140.84;;;;;22.10;73.40;;;;;;2260945;61;3821;-88
2021/07/23 07:16:11;97604.00;0.33;169.44;0.00;0.00;0.62;;;;;22.10;73.30;;;;;;2263008;61;1820;-88
2021/07/23 07:18:36;61885.00;0.21;107.74;0.00;0.00;0.62;;;;;22.00;73.80;;;;;;2261799;61;1745;-88
2021/07/23 07:21:04;10715.00;0.04;19.19;0.00;0.00;0.62;;;;;22.00;74.70;;;;;;2260635;61;2500;-88
2021/07/23 07:23:30;0.00;0.00;0.62;0.00;0.00;0.62;;;;;22.00;74.80;;;;;;2263982;61;2027;-90
2021/07/23 07:25:55;119160.00;0.40;206.63;0.00;0.00;0.62;;;;;22.00;74.40;;;;;;2262459;61;2080;-89
2021/07/23 07:28:21;268128.00;0.89;463.13;73560.00;0.25;127.91;;;;;22.00;74.40;;;;;;2269197;61;2748;-90
2021/07/23 07:30:47;0.00;0.00;0.62;0.00;0.00;0.62;;;;;22.00;74.40;;;;;;2269458;61;1840;-88
2021/07/23 07:33:13;142533.00;0.48;246.94;0.00;0.00;0.62;;;;;22.00;74.30;;;;;;2273578;61;1216;-92
2021/07/23 07:35:42;303164.00;1.01;523.36;144899.00;0.48;251.02;;;;;22.00;74.30;;;;;;2260670;61;1496;-88
2021/07/23 07:38:08;45756.00;0.15;79.85;0.00;0.00;0.62;;;;;22.00;74.00;;;;;;2260056;61;1787;-89
2021/07/23 07:40:33;52705.00;0.18;91.86;0.00;0.00;0.62;;;;;22.10;74.80;;;;;;2257716;61;2193;-88
2021/07/23 07:42:59;0.00;0.00;0.62;0.00;0.00;0.62;;;;;22.10;74.70;;;;;;2264706;61;1634;-86
2021/07/23 07:45:25;55720.00;0.19;97.08;0.00;0.00;0.62;;;;;22.30;74.30;;;;;;2265394;61;1935;-88
2021/07/23 07:47:51;0.00;0.00;0.62;0.00;0.00;0.62;;;;;22.50;73.40;;;;;;2258793;61;2310;-89
2021/07/23 07:50:16;0.00;0.00;0.62;0.00;0.00;0.62;;;;;22.60;73.30;;;;;;2262115;61;2191;-88
2021/07/23 07:52:42;224525.00;0.75;388.13;119142.00;0.40;206.60;;;;;22.60;73.00;;;;;;2263632;61;3397;-88
2021/07/23 07:55:08;0.00;0.00;0.62;0.00;0.00;0.62;;;;;22.70;72.60;;;;;;2261075;61;1666;-89
2021/07/23 07:57:34;190772.00;0.64;330.04;0.00;0.00;0.62;;;;;22.80;72.40;;;;;;2263238;61;2399;-88
2021/07/23 07:59:59;0.00;0.00;0.62;0.00;0.00;0.62;;;;;22.80;72.40;;;;;;2265952;61;1143;-88
2021/07/23 08:02:25;0.00;0.00;0.62;0.00;0.00;0.62;;;;;22.80;72.20;;;;;;2261928;61;2785;-88
2021/07/23 08:04:51;0.00;0.00;0.62;0.00;0.00;0.62;;;;;22.80;72.20;;;;;;2262023;61;1947;-87
2021/07/23 08:07:28;0.00;0.00;0.62;0.00;0.00;0.62;;;;;22.90;72.00;;;;;;2261398;61;2844;-87
2021/07/23 08:09:57;31641.00;0.11;55.42;0.00;0.00;0.62;;;;;22.90;71.70;;;;;;2265626;61;2389;-90
2021/07/23 08:12:23;20074.00;0.07;35.40;0.00;0.00;0.62;;;;;23.00;71.60;;;;;;2268356;61;3679;-87
2021/07/23 08:14:48;0.00;0.00;0.62;0.00;0.00;0.62;;;;;23.00;71.60;;;;;;2270981;61;2788;-88
2021/07/23 08:17:14;23696.00;0.08;41.67;0.00;0.00;0.62;;;;;23.00;71.50;;;;;;2261145;61;2407;-84
2021/07/23 08:19:40;43894.00;0.15;76.63;0.00;0.00;0.62;;;;;23.10;71.30;;;;;;2257842;61;1575;-86
2021/07/23 08:22:05;0.00;0.00;0.62;0.00;0.00;0.62;;;;;23.10;71.20;;;;;;2260358;61;1394;-87
2021/07/23 08:24:31;32111.00;0.11;56.24;0.00;0.00;0.62;;;;;23.20;70.90;;;;;;2262119;61;2010;-87
2021/07/23 08:26:57;0.00;0.00;0.62;0.00;0.00;0.62;;;;;23.30;70.80;;;;;;2263548;61;2776;-87
2021/07/23 08:29:23;0.00;0.00;0.62;0.00;0.00;0.62;;;;;23.30;70.70;;;;;;2259191;61;3974;-90
2021/07/23 08:31:48;28197.00;0.09;49.46;0.00;0.00;0.62;;;;;23.30;70.50;;;;;;2260515;61;2067;-89
2021/07/23 08:34:15;0.00;0.00;0.62;0.00;0.00;0.62;;;;;23.40;70.70;;;;;;2259477;61;2352;-86
2021/07/23 08:36:40;0.00;0.00;0.62;0.00;0.00;0.62;;;;;23.40;70.90;;;;;;2260013;61;2079;-88
2021/07/23 08:39:06;0.00;0.00;0.62;0.00;0.00;0.62;;;;;23.40;70.90;;;;;;2259619;61;1850;-87
2021/07/23 08:41:31;0.00;0.00;0.62;0.00;0.00;0.62;;;;;23.40;70.90;;;;;;2264599;61;1558;-86
2021/07/23 08:43:59;0.00;0.00;0.62;0.00;0.00;0.62;;;;;23.30;70.90;;;;;;2266035;61;1997;-86
2021/07/23 08:46:27;52173.00;0.17;90.94;0.00;0.00;0.62;;;;;23.30;70.90;;;;;;2263142;61;1701;-84
2021/07/23 08:48:52;0.00;0.00;0.62;0.00;0.00;0.62;;;;;23.40;70.80;;;;;;2266190;61;927;-84
2021/07/23 08:51:20;23847.00;0.08;41.93;0.00;0.00;0.62;;;;;23.50;70.40;;;;;;2268419;61;969;-84
2021/07/23 08:53:46;50444.00;0.17;87.95;0.00;0.00;0.62;;;;;23.50;70.30;;;;;;2274886;61;1321;-86
2021/07/23 08:56:22;0.00;0.00;0.62;0.00;0.00;0.62;;;;;23.60;70.20;;;;;;2268662;61;1710;-86
2021/07/23 08:58:48;0.00;0.00;0.62;0.00;0.00;0.62;;;;;23.60;70.00;;;;;;2270507;61;1356;-86
2021/07/23 09:01:13;126938.00;0.42;220.05;0.00;0.00;0.62;;;;;23.60;70.20;;;;;;2268785;61;1233;-88
2021/07/23 09:03:39;70104.00;0.23;121.94;0.00;0.00;0.62;;;;;23.70;69.80;;;;;;2270155;61;2013;-85
2021/07/23 09:06:16;30849.00;0.10;54.05;0.00;0.00;0.62;;;;;23.70;69.60;;;;;;2270580;61;885;-83
2021/07/23 09:08:54;0.00;0.00;0.62;0.00;0.00;0.62;;;;;23.80;69.60;;;;;;2265633;61;1601;-85
2021/07/23 09:11:30;0.00;0.00;0.62;0.00;0.00;0.62;;;;;23.70;70.00;;;;;;2265984;61;2412;-81
2021/07/23 09:14:12;40026.00;0.13;69.93;0.00;0.00;0.62;;;;;23.70;70.00;;;;;;2265561;61;1463;-84
2021/07/23 09:16:38;50810.00;0.17;88.59;0.00;0.00;0.62;;;;;23.70;70.30;;;;;;2265387;61;1391;-81
2021/07/23 09:19:10;99867.00;0.33;173.34;0.00;0.00;0.62;;;;;23.70;70.30;;;;;;2265907;61;1737;-81
2021/07/23 09:21:37;54614.00;0.18;95.16;0.00;0.00;0.62;;;;;23.70;70.00;;;;;;2266187;61;2165;-82
2021/07/23 09:24:03;127171.00;0.42;220.45;0.00;0.00;0.62;;;;;23.70;69.90;;;;;;2264798;61;1942;-81
2021/07/23 09:26:38;0.00;0.00;0.62;0.00;0.00;0.62;;;;;23.70;69.80;;;;;;2265062;61;2165;-81
2021/07/23 09:29:03;32817.00;0.11;57.46;0.00;0.00;0.62;;;;;23.70;69.60;;;;;;2263601;61;2474;-82
2021/07/23 09:31:39;40591.00;0.14;70.91;0.00;0.00;0.62;;;;;23.80;69.00;;;;;;2266245;61;3367;-82
2021/07/23 09:34:05;0.00;0.00;0.62;0.00;0.00;0.62;;;;;23.80;69.00;;;;;;2268060;61;1752;-83
2021/07/23 09:36:31;0.00;0.00;0.62;0.00;0.00;0.62;;;;;23.80;69.00;;;;;;2266901;61;2198;-85
2021/07/23 09:39:06;0.00;0.00;0.62;0.00;0.00;0.62;;;;;23.90;68.70;;;;;;2267041;61;1463;-82
2021/07/23 09:41:34;0.00;0.00;0.62;0.00;0.00;0.62;;;;;23.90;68.10;;;;;;2266975;61;3914;-82
2021/07/23 09:44:04;9238.00;0.03;16.63;0.00;0.00;0.62;;;;;23.90;67.80;;;;;;2266351;61;1927;-82
2021/07/23 09:46:33;52355.00;0.17;91.26;0.00;0.00;0.62;;;;;24.00;67.80;;;;;;2265459;61;2912;-84
2021/07/23 09:49:01;46342.00;0.15;80.86;0.00;0.00;0.62;;;;;24.00;67.30;;;;;;2268151;61;1379;-81
2021/07/23 09:51:28;0.00;0.00;0.62;0.00;0.00;0.62;;;;;24.10;67.30;;;;;;2265450;61;2619;-82
2021/07/23 09:53:55;12951.00;0.04;23.06;0.00;0.00;0.62;;;;;24.20;67.10;;;;;;2262800;61;2891;-82
2021/07/23 09:56:22;26580.00;0.09;46.66;0.00;0.00;0.62;;;;;24.20;66.70;;;;;;2267164;61;2690;-83
2021/07/23 09:58:52;0.00;0.00;0.62;0.00;0.00;0.62;;;;;24.30;66.20;;;;;;2265966;61;2689;-82
2021/07/23 10:01:22;0.00;0.00;0.62;0.00;0.00;0.62;;;;;24.40;65.90;;;;;;2268058;61;2435;-81
2021/07/23 10:03:52;37893.00;0.13;66.24;0.00;0.00;0.62;;;;;24.50;65.50;;;;;;2267695;61;2623;-82
2021/07/23 10:06:34;0.00;0.00;0.62;0.00;0.00;0.62;;;;;24.60;64.70;;;;;;2265790;61;2784;-82
2021/07/23 10:09:10;0.00;0.00;0.62;0.00;0.00;0.62;;;;;24.70;64.50;;;;;;2262156;61;1674;-83
2021/07/23 10:11:36;0.00;0.00;0.62;0.00;0.00;0.62;;;;;24.80;64.10;;;;;;2265360;61;2569;-82